Time;durP1;ratioP1;P1;durP2;ratioP2;P2;SDS_P1;SDS_P2;PMS_P1;PMS_P2;Temp;Humidity;BMP_temperature;BMP_pressure;BME280_temperature;BME280_humidity;BME280_pressure;Samples;Min_cycle;Max_cycle;Signal;HPM_P1;HPM_P2
2023/01/28 00:00:24;;;;;;;;;;;-0.80;99.90;;;;;;4918311;29;20013;-73
2023/01/28 00:02:55;;;;;;;;;;;-0.80;99.90;;;;;;4904149;29;19927;-72
2023/01/28 00:05:24;;;;;;;;;;;-0.80;99.90;;;;;;4913757;29;19931;-72
2023/01/28 00:07:56;;;;;;;;;;;-0.70;99.90;;;;;;4909061;29;20450;-73
2023/01/28 00:10:27;;;;;;;;;;;-0.70;99.90;;;;;;4906199;29;20406;-72
2023/01/28 00:13:03;;;;;;;;;;;-0.70;99.90;;;;;;4919554;29;20021;-73
2023/01/28 00:15:32;;;;;;;;;;;-0.70;99.90;;;;;;4913443;29;19935;-73
2023/01/28 00:18:01;;;;;;;;;;;-0.70;99.90;;;;;;4900835;29;20029;-72
2023/01/28 00:20:31;;;;;;;;;;;-0.70;99.90;;;;;;4902562;29;20386;-72
2023/01/28 00:23:03;;;;;;;;;;;-0.70;99.90;;;;;;4909959;29;20615;-72
2023/01/28 00:25:34;;;;;;;;;;;-0.70;99.90;;;;;;4905808;29;19942;-73
2023/01/28 00:28:02;;;;;;;;;;;-0.80;99.90;;;;;;4900159;29;19927;-71
2023/01/28 00:30:31;;;;;;;;;;;-0.80;99.90;;;;;;4919138;29;19934;-72
2023/01/28 00:33:01;;;;;;;;;;;-0.70;99.90;;;;;;4924855;29;20017;-72
2023/01/28 00:35:34;;;;;;;;;;;-0.70;99.90;;;;;;4920838;29;20010;-73
2023/01/28 00:38:05;;;;;;;;;;;-0.70;99.90;;;;;;4911587;29;19966;-72
2023/01/28 00:40:35;;;;;;;;;;;-0.70;99.90;;;;;;4926348;29;19934;-72
2023/01/28 00:43:05;;;;;;;;;;;-0.70;99.90;;;;;;4924520;29;19978;-72
2023/01/28 00:45:37;;;;;;;;;;;-0.70;99.90;;;;;;4925635;29;20013;-72
2023/01/28 00:48:16;;;;;;;;;;;-0.70;99.90;;;;;;4903248;29;19927;-73
2023/01/28 00:50:45;;;;;;;;;;;-0.70;99.90;;;;;;4910750;29;19994;-73
2023/01/28 00:53:16;;;;;;;;;;;-0.70;99.90;;;;;;4892820;29;19934;-72
2023/01/28 00:55:45;;;;;;;;;;;-0.70;99.90;;;;;;4923578;29;20025;-72
2023/01/28 00:58:15;;;;;;;;;;;-0.70;99.90;;;;;;4925399;29;20004;-73
2023/01/28 01:00:48;;;;;;;;;;;-0.70;99.90;;;;;;4909861;29;19959;-73
2023/01/28 01:03:19;;;;;;;;;;;-0.70;99.90;;;;;;4909211;29;19934;-74
2023/01/28 01:05:48;;;;;;;;;;;-0.70;99.90;;;;;;4930803;29;20085;-72
2023/01/28 01:08:19;;;;;;;;;;;-0.70;99.90;;;;;;4911114;29;20398;-73
2023/01/28 01:10:50;;;;;;;;;;;-0.70;99.90;;;;;;4925704;29;19931;-72
2023/01/28 01:13:21;;;;;;;;;;;-0.70;99.90;;;;;;4919736;29;19931;-72
2023/01/28 01:16:00;;;;;;;;;;;-0.70;99.90;;;;;;4904672;29;19927;-71
2023/01/28 01:18:29;;;;;;;;;;;-0.70;99.90;;;;;;4923491;29;19966;-73
2023/01/28 01:21:12;;;;;;;;;;;-0.70;99.90;;;;;;4907392;29;19955;-72
2023/01/28 01:23:43;;;;;;;;;;;-0.70;99.90;;;;;;4906902;29;20410;-72
2023/01/28 01:26:12;;;;;;;;;;;-0.70;99.90;;;;;;4909682;29;20654;-73
2023/01/28 01:28:44;;;;;;;;;;;-0.70;99.90;;;;;;4923073;29;19934;-71
2023/01/28 01:31:17;;;;;;;;;;;-0.70;99.90;;;;;;4920791;29;19933;-72
2023/01/28 01:33:47;;;;;;;;;;;-0.70;99.90;;;;;;4924782;29;20382;-72
2023/01/28 01:36:18;;;;;;;;;;;-0.60;99.90;;;;;;4931153;29;19933;-72
2023/01/28 01:38:52;;;;;;;;;;;-0.70;99.90;;;;;;4919247;29;20025;-71
2023/01/28 01:41:28;;;;;;;;;;;-0.70;99.90;;;;;;4901211;29;20018;-73
2023/01/28 01:44:03;;;;;;;;;;;-0.70;99.90;;;;;;4915284;29;19927;-73
2023/01/28 01:46:51;;;;;;;;;;;-0.70;99.90;;;;;;4930274;29;19975;-72
2023/01/28 01:49:27;;;;;;;;;;;-0.70;99.90;;;;;;4916452;29;19930;-72
2023/01/28 01:52:05;;;;;;;;;;;-0.70;99.90;;;;;;4907587;29;19927;-72
2023/01/28 01:54:38;;;;;;;;;;;-0.70;99.90;;;;;;4911380;29;20018;-73
2023/01/28 01:57:10;;;;;;;;;;;-0.70;99.90;;;;;;4924088;29;19968;-71
2023/01/28 01:59:45;;;;;;;;;;;-0.60;99.90;;;;;;4926762;29;19982;-73
2023/01/28 02:02:18;;;;;;;;;;;-0.70;99.90;;;;;;4920189;29;20393;-73
2023/01/28 02:04:47;;;;;;;;;;;-0.70;99.90;;;;;;4921749;29;20385;-72
2023/01/28 02:07:20;;;;;;;;;;;-0.70;99.90;;;;;;4908423;29;19931;-72
2023/01/28 02:09:49;;;;;;;;;;;-0.70;99.90;;;;;;4925003;29;19931;-72
2023/01/28 02:12:28;;;;;;;;;;;-0.70;99.90;;;;;;4925378;29;20732;-72
2023/01/28 02:15:04;;;;;;;;;;;-0.70;99.90;;;;;;4905948;29;19938;-72
2023/01/28 02:17:35;;;;;;;;;;;-0.70;99.90;;;;;;4925414;29;19935;-72
2023/01/28 02:20:06;;;;;;;;;;;-0.60;99.90;;;;;;4893661;29;19927;-72
2023/01/28 02:22:39;;;;;;;;;;;-0.70;99.90;;;;;;4919250;29;19938;-72
2023/01/28 02:25:13;;;;;;;;;;;-0.70;99.90;;;;;;4926700;29;19927;-73
2023/01/28 02:27:53;;;;;;;;;;;-0.70;99.90;;;;;;4917377;28;19947;-72
2023/01/28 02:30:32;;;;;;;;;;;-0.70;99.90;;;;;;4903872;29;20025;-72
2023/01/28 02:33:07;;;;;;;;;;;-0.70;99.90;;;;;;4910359;29;19934;-73
2023/01/28 02:35:46;;;;;;;;;;;-0.60;99.90;;;;;;4904998;29;20401;-73
2023/01/28 02:38:21;;;;;;;;;;;-0.60;99.90;;;;;;4908531;29;19970;-71
2023/01/28 02:41:01;;;;;;;;;;;-0.70;99.90;;;;;;4918737;29;20298;-72
2023/01/28 02:43:44;;;;;;;;;;;-0.70;99.90;;;;;;4905286;29;19935;-71
2023/01/28 02:49:10;;;;;;;;;;;-0.70;99.90;;;;;;4933768;29;19927;-72
2023/01/28 02:51:49;;;;;;;;;;;-0.70;99.90;;;;;;4945810;29;19922;-70
2023/01/28 02:54:28;;;;;;;;;;;-0.70;99.90;;;;;;4922765;29;20038;-71
2023/01/28 02:57:21;;;;;;;;;;;-0.70;99.90;;;;;;4935431;29;19933;-72
2023/01/28 03:00:18;;;;;;;;;;;-0.70;99.90;;;;;;4914171;29;20373;-73
2023/01/28 03:02:53;;;;;;;;;;;-0.70;99.90;;;;;;4904709;29;20021;-72
2023/01/28 03:05:32;;;;;;;;;;;-0.70;99.90;;;;;;4908514;29;20335;-73
2023/01/28 03:09:21;;;;;;;;;;;-0.70;99.90;;;;;;4925863;29;19930;-72
2023/01/28 03:38:59;;;;;;;;;;;-0.80;99.90;;;;;;4928057;29;19933;-73
2023/01/28 03:41:33;;;;;;;;;;;-0.70;99.90;;;;;;4899349;29;19982;-72
2023/01/28 03:46:57;;;;;;;;;;;-0.80;99.90;;;;;;4922057;29;19958;-73
2023/01/28 03:49:40;;;;;;;;;;;-0.70;99.90;;;;;;4906060;29;20390;-72
2023/01/28 03:52:31;;;;;;;;;;;-0.70;99.90;;;;;;4927493;29;20390;-72
2023/01/28 03:55:29;;;;;;;;;;;-0.70;99.90;;;;;;4916223;29;19933;-72
2023/01/28 03:58:01;;;;;;;;;;;-0.70;99.90;;;;;;4914167;29;19934;-73
2023/01/28 04:00:42;;;;;;;;;;;-0.70;99.90;;;;;;4910794;29;20279;-71
2023/01/28 04:03:23;;;;;;;;;;;-0.70;99.90;;;;;;4907546;29;19927;-73
2023/01/28 04:09:04;;;;;;;;;;;-0.70;99.90;;;;;;4923596;29;19983;-72
2023/01/28 04:12:18;;;;;;;;;;;-0.60;99.90;;;;;;4930676;29;20305;-73
2023/01/28 04:14:52;;;;;;;;;;;-0.70;99.90;;;;;;4907195;29;19927;-72
2023/01/28 04:17:32;;;;;;;;;;;-0.60;99.90;;;;;;4921378;29;20005;-73
2023/01/28 04:20:28;;;;;;;;;;;-0.60;99.90;;;;;;4922462;29;19927;-72
2023/01/28 04:25:59;;;;;;;;;;;-0.60;99.90;;;;;;4925631;29;19983;-72
2023/01/28 04:28:31;;;;;;;;;;;-0.60;99.90;;;;;;4919194;29;20275;-73
2023/01/28 04:31:07;;;;;;;;;;;-0.60;99.90;;;;;;4910821;29;19935;-73
2023/01/28 04:33:56;;;;;;;;;;;-0.60;99.90;;;;;;4926194;29;19942;-72
2023/01/28 04:37:13;;;;;;;;;;;-0.60;99.90;;;;;;4918339;29;20351;-72
2023/01/28 04:40:07;;;;;;;;;;;-0.60;99.90;;;;;;4909315;29;19982;-73
2023/01/28 04:42:42;;;;;;;;;;;-0.60;99.90;;;;;;4910391;29;19927;-73
2023/01/28 04:45:41;;;;;;;;;;;-0.60;99.90;;;;;;4923313;29;19938;-72
2023/01/28 04:48:31;;;;;;;;;;;-0.60;99.90;;;;;;4923140;29;20648;-73
2023/01/28 04:51:22;;;;;;;;;;;-0.60;99.90;;;;;;4919819;29;19930;-73
2023/01/28 04:54:16;;;;;;;;;;;-0.60;99.90;;;;;;4930603;28;19927;-73
2023/01/28 04:57:21;;;;;;;;;;;-0.60;99.90;;;;;;4909569;29;20368;-72
2023/01/28 04:59:59;;;;;;;;;;;-0.60;99.90;;;;;;4924608;29;20402;-73
2023/01/28 05:02:29;;;;;;;;;;;-0.60;99.90;;;;;;4903758;29;19927;-72
2023/01/28 05:05:00;;;;;;;;;;;-0.60;99.90;;;;;;4925978;29;20279;-71
2023/01/28 05:07:54;;;;;;;;;;;-0.60;99.90;;;;;;4927249;29;19927;-71
2023/01/28 05:10:22;;;;;;;;;;;-0.60;99.90;;;;;;4926455;29;19959;-72
2023/01/28 05:13:06;;;;;;;;;;;-0.60;99.90;;;;;;4914484;29;19934;-72
2023/01/28 05:16:02;;;;;;;;;;;-0.60;99.90;;;;;;4914712;29;19982;-72
2023/01/28 05:18:46;;;;;;;;;;;-0.60;99.90;;;;;;4926054;29;20017;-72
2023/01/28 05:21:35;;;;;;;;;;;-0.60;99.90;;;;;;4920877;29;19927;-72
2023/01/28 05:24:16;;;;;;;;;;;-0.60;99.90;;;;;;4918058;29;19927;-73
2023/01/28 05:26:57;;;;;;;;;;;-0.60;99.90;;;;;;4939083;28;19933;-73
2023/01/28 05:29:33;;;;;;;;;;;-0.60;99.90;;;;;;4921404;29;19935;-73
2023/01/28 05:32:11;;;;;;;;;;;-0.60;99.90;;;;;;4931446;29;19963;-72
2023/01/28 05:34:44;;;;;;;;;;;-0.60;99.90;;;;;;4936299;29;19926;-72
2023/01/28 05:37:17;;;;;;;;;;;-0.60;99.90;;;;;;4940025;29;19973;-72
2023/01/28 05:39:59;;;;;;;;;;;-0.40;99.90;;;;;;4915420;29;20274;-71
2023/01/28 05:42:52;;;;;;;;;;;-0.10;99.90;;;;;;4927195;29;19983;-76
2023/01/28 05:45:41;;;;;;;;;;;0.00;99.90;;;;;;4939914;29;19923;-74
2023/01/28 05:48:36;;;;;;;;;;;0.10;99.90;;;;;;4942076;29;19927;-71
2023/01/28 05:51:38;;;;;;;;;;;0.00;99.90;;;;;;4910501;29;19935;-72
2023/01/28 05:54:08;;;;;;;;;;;-0.10;99.90;;;;;;4913071;29;20351;-72
2023/01/28 05:59:33;;;;;;;;;;;-0.20;99.90;;;;;;4932478;29;20014;-72
2023/01/28 06:02:03;;;;;;;;;;;-0.30;99.90;;;;;;4902328;29;19937;-72
2023/01/28 06:04:33;;;;;;;;;;;-0.20;99.90;;;;;;4926720;29;19962;-71
2023/01/28 06:07:03;;;;;;;;;;;0.10;99.90;;;;;;4914635;29;19975;-73
2023/01/28 06:09:33;;;;;;;;;;;0.10;99.90;;;;;;4927388;29;19927;-72
2023/01/28 06:12:03;;;;;;;;;;;0.10;99.90;;;;;;4911223;29;19927;-73
2023/01/28 06:14:43;;;;;;;;;;;0.00;99.90;;;;;;4910713;29;19954;-73
2023/01/28 06:17:37;;;;;;;;;;;-0.10;99.90;;;;;;4918718;29;20308;-71
2023/01/28 06:20:22;;;;;;;;;;;-0.20;99.90;;;;;;4913987;29;19931;-73
2023/01/28 06:23:07;;;;;;;;;;;-0.20;99.90;;;;;;4917589;29;20378;-72
2023/01/28 06:25:37;;;;;;;;;;;-0.30;99.90;;;;;;4912425;29;19934;-72
2023/01/28 06:28:10;;;;;;;;;;;-0.30;99.90;;;;;;4913202;29;19966;-72
2023/01/28 06:30:39;;;;;;;;;;;-0.30;99.90;;;;;;4915280;29;20025;-73
2023/01/28 06:33:13;;;;;;;;;;;-0.40;99.90;;;;;;4928273;29;19931;-73
2023/01/28 06:35:43;;;;;;;;;;;-0.40;99.90;;;;;;4926734;29;20271;-72
2023/01/28 06:38:13;;;;;;;;;;;-0.40;99.90;;;;;;4929779;29;19931;-72
2023/01/28 06:40:50;;;;;;;;;;;-0.40;99.90;;;;;;4914010;29;19926;-73
2023/01/28 06:43:19;;;;;;;;;;;-0.40;99.90;;;;;;4914986;29;20394;-73
2023/01/28 06:45:49;;;;;;;;;;;-0.40;99.90;;;;;;4908366;29;19927;-73
2023/01/28 06:48:18;;;;;;;;;;;-0.40;99.90;;;;;;4910731;29;19974;-73
2023/01/28 06:50:49;;;;;;;;;;;-0.40;99.90;;;;;;4912016;29;19934;-72
2023/01/28 06:53:22;;;;;;;;;;;-0.40;99.90;;;;;;4910000;29;20017;-73
2023/01/28 06:55:53;;;;;;;;;;;-0.50;99.90;;;;;;4908713;29;19963;-72
2023/01/28 06:58:23;;;;;;;;;;;-0.50;99.90;;;;;;4914238;29;19966;-71
2023/01/28 07:00:52;;;;;;;;;;;-0.40;99.90;;;;;;4897982;29;20639;-72
2023/01/28 07:03:20;;;;;;;;;;;-0.40;99.90;;;;;;4911126;29;19934;-72
2023/01/28 07:05:50;;;;;;;;;;;-0.40;99.90;;;;;;4923954;29;19934;-76
2023/01/28 07:08:20;;;;;;;;;;;-0.40;99.90;;;;;;4926422;29;19935;-72
2023/01/28 07:10:51;;;;;;;;;;;-0.40;99.90;;;;;;4926943;29;19927;-72
2023/01/28 07:13:23;;;;;;;;;;;-0.40;99.90;;;;;;4929542;29;19935;-72
2023/01/28 07:15:56;;;;;;;;;;;-0.40;99.90;;;;;;4923270;29;19938;-73
2023/01/28 07:18:34;;;;;;;;;;;-0.40;99.90;;;;;;4930199;29;20386;-72
2023/01/28 07:21:23;;;;;;;;;;;-0.40;99.90;;;;;;4928706;29;20531;-73
2023/01/28 07:24:00;;;;;;;;;;;-0.40;99.90;;;;;;4928915;29;20434;-73
2023/01/28 07:26:31;;;;;;;;;;;-0.40;99.90;;;;;;4913828;29;20025;-73
2023/01/28 07:29:00;;;;;;;;;;;-0.40;99.90;;;;;;4909642;29;19935;-72
2023/01/28 07:31:30;;;;;;;;;;;-0.40;99.90;;;;;;4914559;29;19958;-72
2023/01/28 07:33:58;;;;;;;;;;;-0.40;99.90;;;;;;4910823;29;19978;-73
2023/01/28 07:36:28;;;;;;;;;;;-0.40;99.90;;;;;;4911322;29;20374;-73
2023/01/28 07:38:58;;;;;;;;;;;-0.40;99.90;;;;;;4929121;29;19982;-72
2023/01/28 07:41:28;;;;;;;;;;;-0.30;99.90;;;;;;4896148;29;19927;-72
2023/01/28 07:44:04;;;;;;;;;;;-0.30;99.90;;;;;;4895092;29;20071;-72
2023/01/28 07:46:36;;;;;;;;;;;-0.30;99.90;;;;;;4932321;29;19935;-73
2023/01/28 07:49:06;;;;;;;;;;;-0.30;99.90;;;;;;4931762;29;19934;-72
2023/01/28 07:51:38;;;;;;;;;;;-0.30;99.90;;;;;;4934954;29;20394;-73
2023/01/28 07:54:11;;;;;;;;;;;-0.30;99.90;;;;;;4912867;29;19931;-71
2023/01/28 07:56:39;;;;;;;;;;;-0.30;99.90;;;;;;4930420;29;20297;-73
2023/01/28 07:59:09;;;;;;;;;;;-0.30;99.90;;;;;;4918664;28;20413;-73
2023/01/28 08:01:40;;;;;;;;;;;-0.30;99.90;;;;;;4903058;29;19938;-73
2023/01/28 08:04:10;;;;;;;;;;;-0.30;99.90;;;;;;4914720;29;19938;-72
2023/01/28 08:06:40;;;;;;;;;;;-0.30;99.90;;;;;;4933737;29;20002;-72
2023/01/28 08:09:10;;;;;;;;;;;-0.40;99.90;;;;;;4933969;29;19944;-73
2023/01/28 08:11:41;;;;;;;;;;;-0.40;99.90;;;;;;4933921;29;19957;-73
2023/01/28 08:14:23;;;;;;;;;;;-0.40;99.90;;;;;;4929656;29;20381;-72
2023/01/28 08:16:51;;;;;;;;;;;-0.40;99.90;;;;;;4931236;29;19926;-73
2023/01/28 08:19:20;;;;;;;;;;;-0.40;99.90;;;;;;4918488;29;20576;-72
2023/01/28 08:21:54;;;;;;;;;;;-0.30;99.90;;;;;;4933005;29;19926;-73
2023/01/28 08:24:23;;;;;;;;;;;-0.30;99.90;;;;;;4900446;29;20029;-72
2023/01/28 08:26:52;;;;;;;;;;;-0.30;99.90;;;;;;4914646;29;19947;-73
2023/01/28 08:29:21;;;;;;;;;;;-0.30;99.90;;;;;;4917367;29;19933;-72
2023/01/28 08:31:52;;;;;;;;;;;-0.30;99.90;;;;;;4910979;29;20022;-73
2023/01/28 08:34:24;;;;;;;;;;;-0.20;99.90;;;;;;4928016;29;20299;-73
2023/01/28 08:37:00;;;;;;;;;;;-0.20;99.90;;;;;;4933014;29;19931;-72
2023/01/28 08:39:28;;;;;;;;;;;-0.20;99.90;;;;;;4917384;29;19927;-72
2023/01/28 08:41:59;;;;;;;;;;;-0.10;99.90;;;;;;4926935;29;19926;-72
2023/01/28 08:44:28;;;;;;;;;;;-0.20;99.90;;;;;;4952183;29;19922;-72
2023/01/28 08:46:57;;;;;;;;;;;-0.10;99.90;;;;;;4928106;28;20409;-73
2023/01/28 08:49:26;;;;;;;;;;;-0.10;99.90;;;;;;4913484;29;20453;-71
2023/01/28 08:51:55;;;;;;;;;;;-0.10;99.90;;;;;;4918064;29;19931;-73
2023/01/28 08:54:29;;;;;;;;;;;-0.10;99.90;;;;;;4910622;29;19999;-73
2023/01/28 08:56:59;;;;;;;;;;;0.00;99.90;;;;;;4917551;29;19933;-73
2023/01/28 08:59:30;;;;;;;;;;;0.00;99.90;;;;;;4933347;29;19953;-72
2023/01/28 09:02:03;;;;;;;;;;;0.00;99.90;;;;;;4917919;29;19970;-73
2023/01/28 09:04:37;;;;;;;;;;;0.10;99.90;;;;;;4911930;29;19931;-71
2023/01/28 09:07:08;;;;;;;;;;;0.10;99.90;;;;;;4916942;29;19930;-72
2023/01/28 09:09:40;;;;;;;;;;;0.10;99.90;;;;;;4914512;29;19934;-73
2023/01/28 09:12:10;;;;;;;;;;;0.10;99.90;;;;;;4917633;29;20434;-72
2023/01/28 09:14:41;;;;;;;;;;;0.20;99.90;;;;;;4917443;29;19935;-72
2023/01/28 09:17:11;;;;;;;;;;;0.20;99.90;;;;;;4914866;29;19966;-72
2023/01/28 09:19:43;;;;;;;;;;;0.10;99.90;;;;;;4910533;29;20370;-73
2023/01/28 09:22:17;;;;;;;;;;;0.10;99.90;;;;;;4928967;29;20409;-72
2023/01/28 09:24:48;;;;;;;;;;;0.10;99.90;;;;;;4913497;29;19926;-73
2023/01/28 09:27:20;;;;;;;;;;;0.10;99.90;;;;;;4930249;29;20467;-73
2023/01/28 09:29:54;;;;;;;;;;;0.10;99.90;;;;;;4919155;29;20424;-72
2023/01/28 09:32:24;;;;;;;;;;;0.10;99.90;;;;;;4911182;29;19937;-72
2023/01/28 09:34:59;;;;;;;;;;;0.20;99.90;;;;;;4923676;29;20346;-72
2023/01/28 09:37:28;;;;;;;;;;;0.20;99.90;;;;;;4916455;29;19927;-73
2023/01/28 09:40:02;;;;;;;;;;;0.20;99.90;;;;;;4930871;29;19937;-72
2023/01/28 09:43:04;;;;;;;;;;;0.20;99.90;;;;;;4931441;29;19931;-73
2023/01/28 09:45:36;;;;;;;;;;;0.30;99.90;;;;;;4926042;29;19950;-73
2023/01/28 09:48:16;;;;;;;;;;;0.40;99.90;;;;;;4931956;29;20013;-73
2023/01/28 09:50:47;;;;;;;;;;;0.40;99.90;;;;;;4914109;29;19982;-73
2023/01/28 09:53:23;;;;;;;;;;;0.40;99.90;;;;;;4931172;29;19931;-73
2023/01/28 09:56:09;;;;;;;;;;;0.40;99.90;;;;;;4910877;29;19934;-72
2023/01/28 09:58:42;;;;;;;;;;;0.40;99.90;;;;;;4933678;29;19970;-73
2023/01/28 10:01:35;;;;;;;;;;;0.50;99.90;;;;;;4916244;29;20376;-73
2023/01/28 10:04:23;;;;;;;;;;;0.50;99.90;;;;;;4913898;29;19941;-71
2023/01/28 10:07:08;;;;;;;;;;;0.50;99.90;;;;;;4918091;29;20412;-73
2023/01/28 10:09:57;;;;;;;;;;;0.60;99.90;;;;;;4932274;29;20310;-73
2023/01/28 10:12:43;;;;;;;;;;;0.60;99.90;;;;;;4927359;29;19933;-70
2023/01/28 10:15:39;;;;;;;;;;;0.70;99.90;;;;;;4925465;29;19938;-73
2023/01/28 10:18:13;;;;;;;;;;;0.70;99.90;;;;;;4928949;29;19934;-73
2023/01/28 10:20:52;;;;;;;;;;;0.80;99.90;;;;;;4931080;29;19939;-72
2023/01/28 10:23:26;;;;;;;;;;;0.80;99.90;;;;;;4922104;28;19986;-72
2023/01/28 10:26:17;;;;;;;;;;;0.80;99.90;;;;;;4925653;29;20275;-73
2023/01/28 10:29:19;;;;;;;;;;;0.70;99.90;;;;;;4918655;29;19943;-73
2023/01/28 10:32:35;;;;;;;;;;;0.80;99.90;;;;;;4919817;29;19934;-72
2023/01/28 10:35:23;;;;;;;;;;;0.80;99.90;;;;;;4926030;29;20283;-73
2023/01/28 10:38:19;;;;;;;;;;;0.90;99.90;;;;;;4924480;29;19927;-73
2023/01/28 10:41:33;;;;;;;;;;;1.00;99.90;;;;;;4923657;29;19950;-73
2023/01/28 10:44:12;;;;;;;;;;;1.00;99.90;;;;;;4920111;29;19942;-73
2023/01/28 10:46:49;;;;;;;;;;;1.10;99.90;;;;;;4916100;29;20019;-73
2023/01/28 10:49:28;;;;;;;;;;;1.10;99.90;;;;;;4895284;29;19931;-72
2023/01/28 10:52:10;;;;;;;;;;;1.10;99.90;;;;;;4920175;29;19942;-73
2023/01/28 10:55:19;;;;;;;;;;;1.10;99.90;;;;;;4919532;29;19931;-73
2023/01/28 10:58:33;;;;;;;;;;;1.20;99.90;;;;;;4914666;29;19938;-73
2023/01/28 11:01:43;;;;;;;;;;;1.20;99.90;;;;;;4927539;29;20412;-73
2023/01/28 11:04:40;;;;;;;;;;;1.20;99.90;;;;;;4925425;29;19934;-73
2023/01/28 11:07:25;;;;;;;;;;;1.30;99.90;;;;;;4929889;29;19983;-73
2023/01/28 11:09:56;;;;;;;;;;;1.20;99.90;;;;;;4915064;29;19935;-73
2023/01/28 11:12:53;;;;;;;;;;;1.30;99.90;;;;;;4904052;29;19927;-73
2023/01/28 11:15:22;;;;;;;;;;;1.30;99.90;;;;;;4908306;29;19926;-74
2023/01/28 11:18:02;;;;;;;;;;;1.30;99.90;;;;;;4891992;29;19932;-73
2023/01/28 11:20:37;;;;;;;;;;;1.30;99.90;;;;;;4927233;29;19934;-74
2023/01/28 11:23:29;;;;;;;;;;;1.30;99.90;;;;;;4932025;28;19933;-73
2023/01/28 11:26:03;;;;;;;;;;;1.30;99.90;;;;;;4928929;29;19982;-74
2023/01/28 11:28:39;;;;;;;;;;;1.30;99.90;;;;;;4931272;29;19931;-73
2023/01/28 11:31:15;;;;;;;;;;;1.40;99.90;;;;;;4922695;29;19927;-73
2023/01/28 11:33:52;;;;;;;;;;;1.40;99.90;;;;;;4923716;29;19935;-73
2023/01/28 11:36:28;;;;;;;;;;;1.50;99.90;;;;;;4928123;29;19931;-73
2023/01/28 11:39:04;;;;;;;;;;;1.50;99.90;;;;;;4932335;29;19962;-73
2023/01/28 11:41:37;;;;;;;;;;;1.50;99.90;;;;;;4935876;29;19927;-73
2023/01/28 11:44:14;;;;;;;;;;;1.60;99.90;;;;;;4927165;29;19983;-73
2023/01/28 11:46:52;;;;;;;;;;;1.70;99.90;;;;;;4932533;29;20285;-73
2023/01/28 11:49:43;;;;;;;;;;;1.70;99.90;;;;;;4922613;29;19931;-73
2023/01/28 11:52:33;;;;;;;;;;;1.70;99.90;;;;;;4924921;29;19927;-73
2023/01/28 11:55:35;;;;;;;;;;;1.70;99.90;;;;;;4923753;29;19931;-73
2023/01/28 11:58:21;;;;;;;;;;;1.70;99.90;;;;;;4891581;29;19959;-73
2023/01/28 12:01:01;;;;;;;;;;;1.60;99.90;;;;;;4922488;29;19927;-73
2023/01/28 12:03:52;;;;;;;;;;;1.60;99.90;;;;;;4924528;29;19987;-73
2023/01/28 12:06:41;;;;;;;;;;;1.50;99.90;;;;;;4924723;29;19934;-73
2023/01/28 12:09:32;;;;;;;;;;;1.60;99.90;;;;;;4921716;29;19931;-73
2023/01/28 12:12:10;;;;;;;;;;;1.50;99.90;;;;;;4908314;29;19934;-72
2023/01/28 12:15:00;;;;;;;;;;;1.50;99.90;;;;;;4902044;29;19930;-72
2023/01/28 12:17:46;;;;;;;;;;;1.60;99.90;;;;;;4926561;29;19974;-72
2023/01/28 12:20:18;;;;;;;;;;;1.60;99.90;;;;;;4921916;29;19927;-72
2023/01/28 12:22:50;;;;;;;;;;;1.70;99.90;;;;;;4921741;29;20275;-72
2023/01/28 12:25:42;;;;;;;;;;;1.70;99.90;;;;;;4923993;29;19930;-72
2023/01/28 12:28:29;;;;;;;;;;;1.80;99.90;;;;;;4925803;29;20006;-72
2023/01/28 12:31:07;;;;;;;;;;;1.80;99.90;;;;;;4931033;29;20391;-71
2023/01/28 12:33:53;;;;;;;;;;;1.90;99.90;;;;;;4921383;29;19983;-71
2023/01/28 12:36:37;;;;;;;;;;;1.90;99.90;;;;;;4927444;29;19973;-71
2023/01/28 12:39:15;;;;;;;;;;;2.00;99.90;;;;;;4928924;29;19938;-72
2023/01/28 12:41:50;;;;;;;;;;;2.00;99.90;;;;;;4926483;29;19982;-71
2023/01/28 12:44:25;;;;;;;;;;;2.00;99.90;;;;;;4916296;29;19927;-72
2023/01/28 12:47:00;;;;;;;;;;;2.10;99.90;;;;;;4927480;29;20398;-72
2023/01/28 12:49:35;;;;;;;;;;;2.20;99.90;;;;;;4929918;29;19930;-71
2023/01/28 12:52:15;;;;;;;;;;;2.20;99.90;;;;;;4923562;29;20300;-71
2023/01/28 12:55:06;;;;;;;;;;;2.20;99.90;;;;;;4924094;29;20009;-71
2023/01/28 12:57:38;;;;;;;;;;;2.20;99.90;;;;;;4928136;29;19952;-71
2023/01/28 13:00:28;;;;;;;;;;;2.10;99.90;;;;;;4927273;29;19931;-71
2023/01/28 13:03:19;;;;;;;;;;;2.10;99.90;;;;;;4919449;29;19938;-71
2023/01/28 13:05:54;;;;;;;;;;;2.10;99.90;;;;;;4926937;29;20017;-71
2023/01/28 13:08:28;;;;;;;;;;;2.10;99.90;;;;;;4925263;29;20576;-72
2023/01/28 13:10:59;;;;;;;;;;;2.10;99.90;;;;;;4925075;29;19938;-71
2023/01/28 13:13:35;;;;;;;;;;;2.10;99.90;;;;;;4925701;29;19927;-71
2023/01/28 13:16:08;;;;;;;;;;;2.10;99.90;;;;;;4930991;29;19938;-71
2023/01/28 13:18:41;;;;;;;;;;;2.10;99.90;;;;;;4930690;29;20052;-71
2023/01/28 13:21:14;;;;;;;;;;;2.00;99.90;;;;;;4921607;29;19927;-71
2023/01/28 13:23:47;;;;;;;;;;;2.00;99.90;;;;;;4922877;29;19926;-71
2023/01/28 13:26:19;;;;;;;;;;;1.90;99.90;;;;;;4923421;29;19978;-71
2023/01/28 13:28:52;;;;;;;;;;;1.90;99.90;;;;;;4929486;29;20366;-71
2023/01/28 13:31:24;;;;;;;;;;;1.90;99.90;;;;;;4931481;29;19973;-71
2023/01/28 13:33:55;;;;;;;;;;;1.90;99.90;;;;;;4927133;29;19927;-71
2023/01/28 13:36:33;;;;;;;;;;;1.80;99.90;;;;;;4926189;29;19958;-71
2023/01/28 13:39:10;;;;;;;;;;;1.90;99.90;;;;;;4930092;29;19933;-71
2023/01/28 13:41:47;;;;;;;;;;;1.90;99.90;;;;;;4920142;29;19931;-71
2023/01/28 13:44:18;;;;;;;;;;;1.90;99.90;;;;;;4923296;29;19931;-71
2023/01/28 13:46:55;;;;;;;;;;;2.00;99.90;;;;;;4923383;29;20382;-71
2023/01/28 13:49:32;;;;;;;;;;;1.90;99.90;;;;;;4925642;29;19926;-71
2023/01/28 13:52:08;;;;;;;;;;;2.00;99.90;;;;;;4930057;29;19973;-71
2023/01/28 13:54:44;;;;;;;;;;;1.90;99.90;;;;;;4926154;29;19930;-71
2023/01/28 13:57:19;;;;;;;;;;;1.90;99.90;;;;;;4926660;29;19937;-71
2023/01/28 14:00:10;;;;;;;;;;;1.90;99.90;;;;;;4918058;29;20034;-72
2023/01/28 14:02:42;;;;;;;;;;;2.00;99.90;;;;;;4926894;29;19934;-71
2023/01/28 14:05:20;;;;;;;;;;;2.00;99.90;;;;;;4912680;29;19974;-71
2023/01/28 14:07:52;;;;;;;;;;;1.90;99.90;;;;;;4929656;29;19934;-71
2023/01/28 14:10:37;;;;;;;;;;;1.90;99.90;;;;;;4924623;29;20029;-71
2023/01/28 14:13:15;;;;;;;;;;;1.90;99.90;;;;;;4922992;29;19931;-71
2023/01/28 14:15:52;;;;;;;;;;;1.90;99.90;;;;;;4922245;29;19933;-71
2023/01/28 14:18:30;;;;;;;;;;;1.90;99.90;;;;;;4919653;29;20386;-71
2023/01/28 14:21:08;;;;;;;;;;;1.80;99.90;;;;;;4927057;29;19927;-71
2023/01/28 14:23:44;;;;;;;;;;;1.80;99.90;;;;;;4923276;29;19936;-71
2023/01/28 14:26:31;;;;;;;;;;;1.80;99.90;;;;;;4926008;29;19933;-71
2023/01/28 14:29:15;;;;;;;;;;;1.80;99.90;;;;;;4919774;29;19931;-71
2023/01/28 14:31:47;;;;;;;;;;;1.70;99.90;;;;;;4927474;29;20026;-71
2023/01/28 14:34:29;;;;;;;;;;;1.70;99.90;;;;;;4927226;29;19931;-71
2023/01/28 14:37:06;;;;;;;;;;;1.70;99.90;;;;;;4936892;29;19931;-71
2023/01/28 14:39:42;;;;;;;;;;;1.70;99.90;;;;;;4939948;29;20374;-71
2023/01/28 14:42:19;;;;;;;;;;;1.60;99.90;;;;;;4924782;29;20365;-71
2023/01/28 14:44:57;;;;;;;;;;;1.60;99.90;;;;;;4926105;29;19937;-71
2023/01/28 14:47:58;;;;;;;;;;;1.60;99.90;;;;;;4922574;29;20287;-71
2023/01/28 14:50:33;;;;;;;;;;;1.60;99.90;;;;;;4924649;29;19935;-71
2023/01/28 14:53:20;;;;;;;;;;;1.60;99.90;;;;;;4926368;29;19946;-71
2023/01/28 14:56:00;;;;;;;;;;;1.60;99.90;;;;;;4923632;29;19927;-71
2023/01/28 14:58:35;;;;;;;;;;;1.60;99.90;;;;;;4927361;29;19942;-71
2023/01/28 15:01:18;;;;;;;;;;;1.60;99.90;;;;;;4924481;29;19946;-71
2023/01/28 15:03:49;;;;;;;;;;;1.50;99.90;;;;;;4922719;29;19935;-71
2023/01/28 15:06:25;;;;;;;;;;;1.50;99.90;;;;;;4923264;29;19930;-71
2023/01/28 15:09:07;;;;;;;;;;;1.40;99.90;;;;;;4924179;29;19954;-71
2023/01/28 15:11:42;;;;;;;;;;;1.40;99.90;;;;;;4930873;29;20416;-71
2023/01/28 15:14:18;;;;;;;;;;;1.40;99.90;;;;;;4918648;29;19927;-71
2023/01/28 15:16:50;;;;;;;;;;;1.40;99.90;;;;;;4928143;29;19934;-71
2023/01/28 15:19:27;;;;;;;;;;;1.40;99.90;;;;;;4921568;29;20289;-71
2023/01/28 15:22:04;;;;;;;;;;;1.30;99.90;;;;;;4923773;29;19938;-71
2023/01/28 15:24:40;;;;;;;;;;;1.30;99.90;;;;;;4923697;29;19994;-71
2023/01/28 15:27:16;;;;;;;;;;;1.30;99.90;;;;;;4925385;29;20266;-71
2023/01/28 15:29:55;;;;;;;;;;;1.30;99.90;;;;;;4928393;29;19935;-71
2023/01/28 15:32:28;;;;;;;;;;;1.20;99.90;;;;;;4919900;29;19931;-71
2023/01/28 15:35:00;;;;;;;;;;;1.30;99.90;;;;;;4924973;29;20297;-70
2023/01/28 15:37:31;;;;;;;;;;;1.30;99.90;;;;;;4923454;29;20408;-70
2023/01/28 15:40:07;;;;;;;;;;;1.20;99.90;;;;;;4919643;29;19958;-69
2023/01/28 15:42:39;;;;;;;;;;;1.20;99.90;;;;;;4907454;29;19931;-70
2023/01/28 15:45:15;;;;;;;;;;;1.20;99.90;;;;;;4924653;29;19927;-70
2023/01/28 15:47:48;;;;;;;;;;;1.20;99.90;;;;;;4930976;29;19927;-70
2023/01/28 15:50:23;;;;;;;;;;;1.10;99.90;;;;;;4918209;29;19927;-70
2023/01/28 15:52:51;;;;;;;;;;;1.10;99.90;;;;;;4898876;29;20359;-70
2023/01/28 15:55:25;;;;;;;;;;;1.10;99.90;;;;;;4920142;29;19935;-71
2023/01/28 15:57:52;;;;;;;;;;;1.10;99.90;;;;;;4927723;29;19931;-69
2023/01/28 16:00:24;;;;;;;;;;;1.10;99.90;;;;;;4909726;29;19927;-70
2023/01/28 16:03:05;;;;;;;;;;;1.10;99.90;;;;;;4903302;29;19947;-70
2023/01/28 16:05:35;;;;;;;;;;;1.10;99.90;;;;;;4923985;29;19983;-70